1966 Tropical Cyclone NELLIE (1966080S10100)


IBTrACS version v04r00. Visit IBTrACS website for data access.
Please direct all questions to the IBTrACS Q and A forum

Storm track - Intensity - Wind Radii - Intensity Data - Source Data - All data

Summary Information

Storm ID 1966080S10100
Start Mar 21 04Z
Max Intensity 75 kt (Mar 23 16Z), 987 mb (Mar 24 00Z)
End Mar 28 01Z
ATCF IDs ,SH321966
Track status Best track data.

Storm track plot

Map of storm track

Intensity plots

Map of storm track

Radial wind information

No radial wind information for this storm


Position and Intensity Table

BASIN ISO_TIME_________ NATURE LAT LON WMO PRES USA WIND BOM PRES DS824 WIND TD9636 WIND NEUMANN WIND NEUMANN PRES
degrees north degrees east mb kts mb kts kts kts mb
SI 1966-03-21 04:00:00 NR -10.00 100.00 25
SI 06:00:00 TS -10.00 99.31 25 25 25
SI 09:00:00 TS -9.98 98.30 25 25 25
SI 10:00:00 TS -9.98 97.88 997 25 997 25 25
SI 12:00:00 TS -10.01 97.21 25 997 25 25 35 997
SI 15:00:00 TS -10.14 96.35 25 997 25 25 35 997
SI 16:00:00 TS -10.20 96.08 997 25 997 25 25 35 997
SI 18:00:00 TS -10.37 95.79 25 997 25 25 35 997
SI 19:00:00 TS -10.48 95.64 997 25 997 25 25 35 997
SI 21:00:00 TS -10.69 95.10 25 997 25 25 35 997
SI 22:00:00 TS -10.81 94.86 997 25 997 25 25 35 997
SI 1966-03-22 00:00:00 TS -11.03 94.23 25 997 25 25 35 997
SI 01:00:00 TS -11.15 93.96 997 25 997 25 25 35 997
SI 03:00:00 TS -11.38 93.51 25 997 25 25 35 997
SI 04:00:00 TS -11.49 93.32 997 25 997 25 25 35 997
SI 06:00:00 TS -11.73 92.97 25 997 25 25 35 997
SI 07:00:00 TS -11.86 92.81 997 25 997 25 25 35 996
SI 09:00:00 TS -12.11 92.54 25 996 25 25 35 996
SI 10:00:00 TS -12.24 92.42 996 25 996 25 25 35 996
SI 12:00:00 TS -12.48 92.21 25 996 25 25 35 996
SI 15:00:00 TS -12.81 91.90 25 996 25 25 35 996
SI 16:00:00 TS -12.91 91.79 996 25 996 25 25 35 996
SI 18:00:00 TS -13.11 91.52 25 996 25 22 35 996
SI 19:00:00 TS -13.21 91.37 996 23 996 23 21 35 995
SI 21:00:00 TS -13.37 91.09 20 995 20 18 37 995
SI 22:00:00 TS -13.45 90.95 995 18 995 18 17 38 995
SI 1966-03-23 00:00:00 TS -13.66 90.70 15 995 15 14 40 995
SI 01:00:00 TS -13.78 90.58 995 15 995 15 13 40 994
SI 03:00:00 TS -14.00 90.41 15 994 15 11 40 994
SI 04:00:00 TS -14.10 90.33 994 15 994 15 10 40 994
SI 06:00:00 TS -14.31 90.21 15 993 15 20 40 994
SI 07:00:00 TS -14.40 90.16 993 22 993 22 26 40 993
SI 09:00:00 TS -14.57 90.07 37 992 37 37 42 993
SI 10:00:00 TS -14.65 90.04 992 44 992 44 42 43 992
SI 12:00:00 TS -14.81 90.00 60 991 60 53 45 992
SI 15:00:00 TS -15.06 89.97 65 991 65 69 45 991
SI 16:00:00 TS -15.14 89.96 991 66 991 66 75 45 991
SI 18:00:00 TS -15.31 89.97 70 990 70 66 45 991
SI 19:00:00 TS -15.39 89.97 990 65 990 65 62 45 990
SI 21:00:00 TS -15.55 90.01 55 989 55 54 47 990
SI 22:00:00 TS -15.63 90.03 989 50 989 50 50 48 989
SI 1966-03-24 00:00:00 TS -15.79 90.06 40 987 40 41 50 989
SI 01:00:00 TS -15.87 90.07 987 37 987 37 37 50 988
SI 03:00:00 TS -16.05 90.09 32 987 32 29 50 988
SI 04:00:00 TS -16.14 90.11 987 30 987 30 25 50 987
SI 06:00:00 TS -16.35 90.15 25 987 25 23 50 987
SI 07:00:00 TS -16.46 90.18 988 23 988 23 22 50 987
SI 09:00:00 TS -16.70 90.25 20 988 20 20 50 987
SI 10:00:00 TS -16.83 90.29 988 18 988 18 20 50 987
SI 12:00:00 TS -17.09 90.36 15 988 15 18 50 988
SI 15:00:00 TS -17.48 90.44 15 988 15 15 50 988
SI 16:00:00 TS -17.61 90.47 989 15 989 15 15 50 988
SI 18:00:00 TS -17.87 90.56 15 989 15 15 50 989
SI 19:00:00 TS -17.99 90.61 989 15 989 15 16 49 989
SI 21:00:00 TS -18.22 90.74 17 989 17 17 47 989
SI 22:00:00 TS -18.33 90.80 990 18 990 18 17 46 989
SI 1966-03-25 00:00:00 TS -18.54 90.92 20 990 20 18 45 990
SI 01:00:00 TS -18.65 90.99 990 20 990 20 18 45 990
SI 03:00:00 TS -18.84 91.14 20 990 20 19 45 990
SI 04:00:00 TS -18.94 91.20 990 20 990 20 20 45 990
SI 06:00:00 TS -19.12 91.32 20 990 20 18 45 990
SI 07:00:00 TS -19.22 91.36 990 19 990 19 17 45 990
SI 09:00:00 TS -19.43 91.42 17 990 17 15 45 990
SI 10:00:00 TS -19.53 91.45 990 16 990 16 15 45 990
SI 12:00:00 TS -19.74 91.51 15 990 15 13 45 990
SI 15:00:00 TS -20.06 91.61 12 990 12 10 45 990
SI 16:00:00 TS -20.17 91.65 990 11 990 11 10 45 990
SI 18:00:00 TS -20.38 91.75 10 990 10 14 45 990
SI 19:00:00 TS -20.48 91.82 990 13 990 13 16 45 990
SI 21:00:00 TS -20.68 92.00 20 990 20 20 45 990
SI 22:00:00 TS -20.78 92.11 990 23 990 23 22 45 990
SI 1966-03-26 00:00:00 TS -20.99 92.39 30 990 30 26 45 990
SI 01:00:00 TS -21.10 92.56 990 30 990 30 28 45 990
SI 03:00:00 TS -21.35 93.06 32 990 32 32 45 990
SI 04:00:00 TS -21.47 93.38 991 33 991 33 35 45 990
SI 06:00:00 TS -21.76 93.96 35 991 35 33 45 991
SI 07:00:00 TS -21.92 94.31 992 34 992 34 32 44 991
SI 09:00:00 TS -22.25 94.81 32 992 32 30 42 992
SI 10:00:00 TS -22.41 95.07 993 31 993 31 30 41 992
SI 12:00:00 TS -22.75 95.60 30 993 30 28 40 993
SI 15:00:00 TS -23.26 96.37 27 993 27 25 40 993
SI 16:00:00 TS -23.43 96.62 994 26 994 26 25 40 993
SI 18:00:00 TS -23.76 97.12 25 994 25 22 40 994
SI 19:00:00 TS -23.93 97.37 995 23 995 23 21 39 994
SI 21:00:00 TS -24.26 97.83 20 995 20 18 37 995
SI 22:00:00 TS -24.43 98.06 996 18 996 18 17 36 995
SI 1966-03-27 00:00:00 TS -24.76 98.49 15 996 15 14 35 996
SI 01:00:00 TS -24.93 98.70 997 14 997 14 13 35 996
SI 03:00:00 TS -25.26 99.05 12 998 12 11 35 996
SI 04:00:00 TS -25.43 99.19 11 999 11 10 35 996
SI 06:00:00 TS -25.76 99.44 10 1000 10 12 35 997
SI 07:00:00 TS -25.93 99.54 1001 10 1001 10 13 33 997
SI 09:00:00 TS -26.26 99.71 12 1001 12 16 30 999
SI 10:00:00 TS -26.42 99.77 1002 13 1002 13 17 28 1000
SI 12:00:00 TS -26.74 99.89 15 1002 15 20 25 1002
SI 15:00:00 TS -27.23 100.08 1003 23 22 1003
SI 16:00:00 TS -27.39 100.16 1004 1004 25 21 1003
SI 18:00:00 TS -27.71 100.34 1004 20 1004
SI 19:00:00 TS -27.88 100.42 1005 1005 19 1004
SI 21:00:00 TS -28.22 100.58 1005 17 1005
SI 22:00:00 TS -28.40 100.66 1006 1006 16 1005
SI 1966-03-28 00:00:00 TS -28.74 100.84 1006 15 1006
SI 01:00:00 NR -29.00 101.00 1007 1007

Source Information

Agency Information
USA bsh321966.txt
TOKYO
CMA
HKO
NEWDELHI
REUNION
BOM IDCKMSTM0S.csv:Line=4544:NELLIE
NADI
WELLINGTON
DS824 s_hem.dat:1004:32S
TD9636 cons_worldwide_trop_cyclone_18710101-19891231-006:Line=7481
TD9635
NEUMANN tracks.sh:Storm=170:NELLIE:BSH3266:BM556
MLC

All available IBTrACS Data

SEASON BASIN SUBBASIN ISO_TIME_________ NATURE LAT LON WMO PRES WMO AGENCY DIST2LAND LANDFALL IFLAG USA AGENCY USA ATCF_ID USA LAT USA LON USA WIND USA SSHS BOM LAT BOM LON BOM PRES DS824 LAT DS824 LON DS824 STAGE DS824 WIND TD9636 LAT TD9636 LON TD9636 STAGE TD9636 WIND NEUMANN LAT NEUMANN LON NEUMANN CLASS NEUMANN WIND NEUMANN PRES STORM SPEED STORM DIR
Year degrees north degrees east mb km km degrees north degrees east kts 1 degrees north degrees east mb degrees north degrees east kts degrees north degrees east kts degrees north degrees east kts mb kts degrees
1966 SI WA 1966-03-21 04:00:00 NR -10.00 100.00 675 675 __________O___ -1 -10.00 100.00 1 25 20 270
1966 SI WA 06:00:00 TS -10.00 99.31 730 730 O________OP___ jtwc_sh SH321966 -10.00 99.30 25 -1 -10.00 99.30 TC 25 -10.00 99.32 1 25 20 271
1966 SI WA 09:00:00 TS -9.98 98.30 798 805 P________PP___ SH321966 -9.97 98.29 25 -1 -9.97 98.29 TC 25 -10.00 98.30 1 25 21 271
1966 SI WA 10:00:00 TS -9.98 97.88 997 bom 827 827 P_____O__PP___ SH321966 -9.97 97.96 25 -1 -10.00 97.00 997 -9.97 97.96 TC 25 -10.01 97.97 1 25 22 268
1966 SI WA 12:00:00 TS -10.01 97.21 876 876 O_____P__OP_O_ jtwc_sh SH321966 -10.00 97.30 25 -1 -10.02 96.74 997 -10.00 97.30 TC 25 -10.04 97.30 1 25 -10.00 97.00 TC 35 997 18 264
1966 SI WA 15:00:00 TS -10.14 96.35 951 951 P_____P__PP_P_ SH321966 -10.15 96.34 25 -1 -10.13 96.23 997 -10.15 96.34 TC 25 -10.15 96.32 1 25 -10.07 96.60 TC 35 997 17 261
1966 SI WA 16:00:00 TS -10.20 96.08 997 bom 975 975 P_____O__PO_P_ SH321966 -10.23 96.02 25 -1 -10.20 96.00 997 -10.23 96.02 TC 25 -10.20 96.00 1 25 -10.11 96.44 TC 35 997 12 247
1966 SI WA 18:00:00 TS -10.37 95.79 1014 1014 O_____P__OP_O_ jtwc_sh SH321966 -10.40 95.40 25 -1 -10.40 95.42 997 -10.40 95.40 TC 25 -10.33 95.37 1 25 -10.20 96.00 TC 35 997 10 237
1966 SI WA 19:00:00 TS -10.48 95.64 997 bom 1037 1037 P_____O__PP_P_ SH321966 -10.49 95.08 25 -1 -10.50 95.10 997 -10.49 95.08 TC 25 -10.42 95.06 1 25 -10.26 95.72 TC 35 997 15 245
1966 SI WA 21:00:00 TS -10.69 95.10 1090 1090 P_____P__PP_P_ SH321966 -10.69 94.44 25 -1 -10.63 94.44 997 -10.69 94.44 TC 25 -10.60 94.47 1 25 -10.41 95.07 TC 35 997 17 247
1966 SI WA 22:00:00 TS -10.81 94.86 997 bom 1110 1110 P_____O__PP_P_ SH321966 -10.79 94.14 25 -1 -10.70 94.10 997 -10.79 94.14 TC 25 -10.70 94.19 1 25 -10.50 94.73 TC 35 997 18 248
1966 SI WA 1966-03-22 00:00:00 TS -11.03 94.23 1164 1174 O_____P__OP_O_ jtwc_sh SH321966 -11.00 93.60 25 -1 -10.89 93.38 997 -11.00 93.60 TC 25 -10.92 93.67 1 25 -10.70 94.10 TC 35 997 19 249
1966 SI WA 01:00:00 TS -11.15 93.96 997 bom 1184 1184 P_____O__PP_P_ SH321966 -11.09 93.36 25 -1 -11.00 93.10 997 -11.09 93.36 TC 25 -11.04 93.42 1 25 -10.80 93.84 TC 35 997 16 244
1966 SI WA 03:00:00 TS -11.38 93.51 1239 1239 P_____P__PP_P_ SH321966 -11.28 92.95 25 -1 -11.26 92.87 997 -11.28 92.95 TC 25 -11.28 92.99 1 25 -11.03 93.37 TC 35 997 14 241
1966 SI WA 04:00:00 TS -11.49 93.32 997 bom 1260 1260 P_____O__PO_P_ SH321966 -11.38 92.78 25 -1 -11.40 92.80 997 -11.38 92.78 TC 25 -11.40 92.80 1 25 -11.15 93.16 TC 35 997 13 236
1966 SI WA 06:00:00 TS -11.73 92.97 1295 1311 O_____P__OP_O_ jtwc_sh SH321966 -11.60 92.50 25 -1 -11.67 92.54 997 -11.60 92.50 TC 25 -11.64 92.50 1 25 -11.40 92.80 TC 35 997 12 234
1966 SI WA 07:00:00 TS -11.86 92.81 997 bom 1326 1326 P_____O__PP_P_ SH321966 -11.74 92.39 25 -1 -11.80 92.40 997 -11.74 92.39 TC 25 -11.77 92.37 1 25 -11.53 92.63 TC 35 996 11 228
1966 SI WA 09:00:00 TS -12.11 92.54 1362 1362 P_____P__PP_P_ SH321966 -12.05 92.22 25 -1 -12.07 92.12 996 -12.05 92.22 TC 25 -12.03 92.17 1 25 -11.80 92.33 TC 35 996 11 225
1966 SI WA 10:00:00 TS -12.24 92.42 996 bom 1377 1377 P_____O__PP_P_ SH321966 -12.21 92.15 25 -1 -12.20 92.00 996 -12.21 92.15 TC 25 -12.16 92.08 1 25 -11.94 92.21 TC 35 996 10 221
1966 SI WA 12:00:00 TS -12.48 92.21 1417 1417 O_____P__OP_O_ jtwc_sh SH321966 -12.50 92.00 25 -1 -12.45 91.90 996 -12.50 92.00 TC 25 -12.41 91.92 1 25 -12.20 92.00 TC 35 996 9 221
1966 SI WA 15:00:00 TS -12.81 91.90 1463 1463 P_____P__PP_P_ SH321966 -12.83 91.67 25 -1 -12.79 91.75 996 -12.83 91.67 TC 25 -12.78 91.69 1 25 -12.59 91.82 TC 35 996 9 223
1966 SI WA 16:00:00 TS -12.91 91.79 996 bom 1478 1478 P_____O__PO_P_ SH321966 -12.92 91.55 25 -1 -12.90 91.60 996 -12.92 91.55 TC 25 -12.90 91.60 1 25 -12.70 91.77 TC 35 996 10 231
1966 SI WA 18:00:00 TS -13.11 91.52 1515 1515 O_____P__OP_O_ jtwc_sh SH321966 -13.10 91.30 25 -1 -13.13 91.05 996 -13.10 91.30 TC 25 -13.11 91.32 1 22 -12.90 91.60 TC 35 996 10 235
1966 SI WA 19:00:00 TS -13.21 91.37 996 bom 1530 1530 P_____O__PP_P_ SH321966 -13.19 91.17 23 -1 -13.20 90.80 996 -13.19 91.17 TC 23 -13.20 91.17 1 21 -12.96 91.44 TC 35 995 10 239
1966 SI WA 21:00:00 TS -13.37 91.09 1567 1567 P_____P__PP_P_ SH321966 -13.35 90.89 20 -1 -13.17 90.58 995 -13.35 90.89 TC 20 -13.39 90.87 1 18 -13.04 91.06 TC 37 995 9 239
1966 SI WA 22:00:00 TS -13.45 90.95 995 bom 1582 1582 P_____O__PP_P_ SH321966 -13.43 90.76 18 -1 -13.20 90.50 995 -13.43 90.76 TC 18 -13.48 90.73 1 17 -13.08 90.86 TC 38 995 10 232
1966 SI WA 1966-03-23 00:00:00 TS -13.66 90.70 1619 1619 O_____P__OP_O_ jtwc_sh SH321966 -13.60 90.50 15 -1 -13.60 90.22 995 -13.60 90.50 TC 15 -13.66 90.44 1 14 -13.20 90.50 TC 40 995 10 227
1966 SI WA 01:00:00 TS -13.78 90.58 995 bom 1634 1634 P_____O__PP_P_ SH321966 -13.70 90.38 15 -1 -13.80 90.10 995 -13.70 90.38 TC 15 -13.74 90.32 1 13 -13.31 90.37 TC 40 994 9 221
1966 SI WA 03:00:00 TS -14.00 90.41 1665 1665 P_____P__PP_P_ SH321966 -13.90 90.16 15 -1 -13.95 90.02 994 -13.90 90.16 TC 15 -13.91 90.09 1 11 -13.58 90.18 TC 40 994 8 217
1966 SI WA 04:00:00 TS -14.10 90.33 994 bom 1680 1680 P_____O__PO_P_ SH321966 -14.00 90.06 15 -1 -14.00 90.00 994 -14.00 90.06 TC 15 -14.00 90.00 1 10 -13.72 90.11 TC 40 994 7 211
1966 SI WA 06:00:00 TS -14.31 90.21 1705 1705 O_____P__OP_O_ jtwc_sh SH321966 -14.20 89.90 15 -1 -14.19 89.93 993 -14.20 89.90 TC 15 -14.18 89.87 1 20 -14.00 90.00 TC 40 994 7 210
1966 SI WA 07:00:00 TS -14.40 90.16 993 bom 1714 1714 P_____O__PP_P_ SH321966 -14.29 89.84 22 -1 -14.30 89.90 993 -14.29 89.84 TC 22 -14.27 89.83 1 26 -14.11 89.94 TC 40 993 6 208
1966 SI WA 09:00:00 TS -14.57 90.07 1738 1738 P_____P__PP_P_ SH321966 -14.45 89.75 37 0 -14.50 89.83 992 -14.45 89.75 TC 37 -14.46 89.77 1 37 -14.32 89.86 TC 42 993 6 204
1966 SI WA 10:00:00 TS -14.65 90.04 992 bom 1754 1754 P_____O__PP_P_ SH321966 -14.53 89.72 44 0 -14.60 89.80 992 -14.53 89.72 TC 44 -14.55 89.76 1 42 -14.42 89.83 TC 43 992 5 197
1966 SI MM 12:00:00 TS -14.81 90.00 1763 1763 O_____P__OP_O_ jtwc_sh SH321966 -14.70 89.70 60 0 -14.77 89.78 991 -14.70 89.70 TC 60 -14.73 89.75 1 53 -14.60 89.80 TC 45 992 5 189
1966 SI MM 15:00:00 TS -15.06 89.97 1791 1791 P_____P__PP_P_ SH321966 -15.00 89.72 65 1 -15.01 89.79 991 -15.00 89.72 TC 65 -15.01 89.78 1 69 -14.85 89.77 TC 45 991 5 186
1966 SI MM 16:00:00 TS -15.14 89.96 991 bom 1791 1791 P_____O__PO_P_ SH321966 -15.10 89.74 66 1 -15.10 89.80 991 -15.10 89.74 TC 66 -15.10 89.80 1 75 -14.93 89.77 TC 45 991 5 176
1966 SI MM 18:00:00 TS -15.31 89.97 1809 1809 O_____P__OP_O_ jtwc_sh SH321966 -15.30 89.80 70 1 -15.30 89.78 990 -15.30 89.80 TC 70 -15.28 89.82 1 66 -15.10 89.80 TC 45 991 5 0
1966 SI MM 19:00:00 TS -15.39 89.97 990 bom 1819 1819 P_____O__PP_P_ SH321966 -15.39 89.83 65 1 -15.40 89.80 990 -15.39 89.83 TC 65 -15.36 89.83 1 62 -15.20 89.82 TC 45 990 5 170
1966 SI WA 21:00:00 TS -15.55 90.01 1837 1837 P_____P__PP_P_ SH321966 -15.55 89.89 55 0 -15.61 89.94 989 -15.55 89.89 TC 55 -15.54 89.87 1 54 -15.40 89.89 TC 47 990 5 169
1966 SI WA 22:00:00 TS -15.63 90.03 989 bom 1837 1837 P_____O__PP_P_ SH321966 -15.63 89.93 50 0 -15.70 90.00 989 -15.63 89.93 TC 50 -15.63 89.90 1 50 -15.50 89.93 TC 48 989 5 170
1966 SI WA 1966-03-24 00:00:00 TS -15.79 90.06 1851 1851 O_____P__OP_O_ jtwc_sh SH321966 -15.80 90.00 40 0 -15.83 90.00 987 -15.80 90.00 TC 40 -15.81 89.96 1 41 -15.70 90.00 TC 50 989 5 172
1966 SI WA 01:00:00 TS -15.87 90.07 987 bom 1860 1860 P_____O__PP_P_ SH321966 -15.89 90.03 37 0 -15.90 90.00 987 -15.89 90.03 TC 37 -15.90 89.99 1 37 -15.78 90.01 TC 50 988 5 174
1966 SI WA 03:00:00 TS -16.05 90.09 1869 1879 P_____P__PP_P_ SH321966 -16.08 90.10 32 -1 -16.09 90.05 987 -16.08 90.10 TC 32 -16.10 90.06 1 29 -15.94 90.04 TC 50 988 6 171
1966 SI WA 04:00:00 TS -16.14 90.11 987 bom 1879 1879 P_____O__PO_P_ SH321966 -16.19 90.13 30 -1 -16.20 90.10 987 -16.19 90.13 TC 30 -16.20 90.10 1 25 -16.02 90.05 TC 50 987 6 169
1966 SI WA 06:00:00 TS -16.35 90.15 1892 1902 O_____P__OP_O_ jtwc_sh SH321966 -16.40 90.20 25 -1 -16.39 90.23 987 -16.40 90.20 TC 25 -16.42 90.16 1 23 -16.20 90.10 TC 50 987 6 167
1966 SI WA 07:00:00 TS -16.46 90.18 988 bom 1912 1912 P_____O__PP_P_ SH321966 -16.51 90.23 23 -1 -16.50 90.30 988 -16.51 90.23 TC 23 -16.53 90.20 1 22 -16.31 90.16 TC 50 987 7 165
1966 SI WA 09:00:00 TS -16.70 90.25 1926 1926 P_____P__PP_P_ SH321966 -16.74 90.29 20 -1 -16.76 90.44 988 -16.74 90.29 TC 20 -16.76 90.27 1 20 -16.54 90.30 TC 50 987 8 165
1966 SI WA 10:00:00 TS -16.83 90.29 988 bom 1935 1935 P_____O__PP_P_ SH321966 -16.86 90.33 18 -1 -16.90 90.50 988 -16.86 90.33 TC 18 -16.88 90.31 1 20 -16.66 90.37 TC 50 987 8 166
1966 SI WA 12:00:00 TS -17.09 90.36 1959 1959 O_____P__OP_O_ jtwc_sh SH321966 -17.10 90.40 15 -1 -17.14 90.54 988 -17.10 90.40 TC 15 -17.12 90.40 1 18 -16.90 90.50 TC 50 988 8 168
1966 SI WA 15:00:00 TS -17.48 90.44 1992 1985 P_____P__PP_P_ SH321966 -17.45 90.54 15 -1 -17.48 90.57 988 -17.45 90.54 TC 15 -17.48 90.55 1 15 -17.24 90.55 TC 50 988 8 168
1966 SI WA 16:00:00 TS -17.61 90.47 989 bom 1993 1993 P_____O__PO_P_ SH321966 -17.57 90.59 15 -1 -17.60 90.60 989 -17.57 90.59 TC 15 -17.60 90.60 1 15 -17.36 90.56 TC 50 988 8 164
1966 SI WA 18:00:00 TS -17.87 90.56 2011 2011 O_____P__OP_O_ jtwc_sh SH321966 -17.80 90.70 15 -1 -17.86 90.73 989 -17.80 90.70 TC 15 -17.84 90.71 1 15 -17.60 90.60 TC 50 989 8 161
1966 SI WA 19:00:00 TS -17.99 90.61 989 bom 2019 2018 P_____O__PP_P_ SH321966 -17.92 90.76 15 -1 -18.00 90.80 989 -17.92 90.76 TC 15 -17.96 90.77 1 16 -17.73 90.65 TC 49 989 8 154
1966 SI WA 21:00:00 TS -18.22 90.74 2024 2023 P_____P__PP_P_ SH321966 -18.15 90.89 17 -1 -18.27 90.94 989 -18.15 90.89 TC 17 -18.20 90.90 1 17 -18.01 90.78 TC 47 989 8 153
1966 SI WA 22:00:00 TS -18.33 90.80 990 bom 2023 2021 P_____O__PP_P_ SH321966 -18.27 90.95 18 -1 -18.40 91.00 990 -18.27 90.95 TC 18 -18.32 90.96 1 17 -18.14 90.85 TC 46 989 8 151
1966 SI WA 1966-03-25 00:00:00 TS -18.54 90.92 2028 2027 O_____P__OP_O_ jtwc_sh SH321966 -18.50 91.10 20 -1 -18.68 91.06 990 -18.50 91.10 TC 20 -18.56 91.10 1 18 -18.40 91.00 TC 45 990 7 151
1966 SI WA 01:00:00 TS -18.65 90.99 990 bom 2027 2026 P_____O__PP_P_ SH321966 -18.62 91.18 20 -1 -18.80 91.10 990 -18.62 91.18 TC 20 -18.67 91.17 1 18 -18.51 91.07 TC 45 990 7 146
1966 SI WA 03:00:00 TS -18.84 91.14 2033 2032 P_____P__PP_P_ SH321966 -18.86 91.34 20 -1 -18.94 91.30 990 -18.86 91.34 TC 20 -18.89 91.32 1 19 -18.72 91.20 TC 45 990 7 145
1966 SI WA 04:00:00 TS -18.94 91.20 990 bom 2032 2031 P_____O__PO_P_ SH321966 -18.98 91.43 20 -1 -19.00 91.40 990 -18.98 91.43 TC 20 -19.00 91.40 1 20 -18.82 91.27 TC 45 990 7 148
1966 SI WA 06:00:00 TS -19.12 91.32 2038 2038 O_____P__OP_O_ jtwc_sh SH321966 -19.20 91.60 20 -1 -19.13 91.54 990 -19.20 91.60 TC 20 -19.19 91.55 1 18 -19.00 91.40 TC 45 990 6 153
1966 SI WA 07:00:00 TS -19.22 91.36 990 bom 2038 2038 P_____O__PP_P_ SH321966 -19.29 91.68 19 -1 -19.20 91.60 990 -19.29 91.68 TC 19 -19.28 91.62 1 17 -19.09 91.46 TC 45 990 6 162
1966 SI WA 09:00:00 TS -19.43 91.42 2053 2053 P_____P__PP_P_ SH321966 -19.46 91.85 17 -1 -19.39 91.73 990 -19.46 91.85 TC 17 -19.46 91.78 1 15 -19.25 91.59 TC 45 990 6 164
1966 SI WA 10:00:00 TS -19.53 91.45 990 bom 2052 2052 P_____O__PP_P_ SH321966 -19.54 91.93 16 -1 -19.50 91.80 990 -19.54 91.93 TC 16 -19.55 91.86 1 15 -19.33 91.65 TC 45 990 6 166
1966 SI WA 12:00:00 TS -19.74 91.51 2067 2075 O_____P__OP_O_ jtwc_sh SH321966 -19.70 92.10 15 -1 -19.70 91.99 990 -19.70 92.10 TC 15 -19.73 92.03 1 13 -19.50 91.80 TC 45 990 7 165
1966 SI WA 15:00:00 TS -20.06 91.61 2090 2090 P_____P__PP_P_ SH321966 -19.99 92.34 12 -1 -20.00 92.31 990 -19.99 92.34 TC 12 -20.00 92.30 1 10 -19.79 92.10 TC 45 990 7 164
1966 SI WA 16:00:00 TS -20.17 91.65 990 bom 2098 2090 P_____O__PO_P_ SH321966 -20.09 92.43 11 -1 -20.10 92.40 990 -20.09 92.43 TC 11 -20.10 92.40 1 10 -19.89 92.20 TC 45 990 7 157
1966 SI WA 18:00:00 TS -20.38 91.75 2098 2098 O_____P__OP_O_ jtwc_sh SH321966 -20.30 92.60 10 -1 -20.30 92.54 990 -20.30 92.60 TC 10 -20.30 92.56 1 14 -20.10 92.40 TC 45 990 7 153
1966 SI WA 19:00:00 TS -20.48 91.82 990 bom 2106 2099 P_____O__PP_P_ SH321966 -20.39 92.69 13 -1 -20.40 92.60 990 -20.39 92.69 TC 13 -20.40 92.64 1 16 -20.19 92.47 TC 45 990 8 142
1966 SI WA 21:00:00 TS -20.68 92.00 2108 2100 P_____P__PP_P_ SH321966 -20.58 92.87 20 -1 -20.60 92.73 990 -20.58 92.87 TC 20 -20.62 92.81 1 20 -20.38 92.58 TC 45 990 8 138
1966 SI WA 22:00:00 TS -20.78 92.11 990 bom 2108 2101 P_____O__PP_P_ SH321966 -20.68 92.97 23 -1 -20.70 92.80 990 -20.68 92.97 TC 23 -20.73 92.90 1 22 -20.48 92.64 TC 45 990 10 131
1966 SI WA 1966-03-26 00:00:00 TS -20.99 92.39 2103 2096 O_____P__OP_O_ jtwc_sh SH321966 -20.90 93.20 30 -1 -20.88 92.89 990 -20.90 93.20 TC 30 -20.97 93.12 1 26 -20.70 92.80 TC 45 990 11 128
1966 SI WA 01:00:00 TS -21.10 92.56 990 bom 2097 2080 P_____O__PP_P_ SH321966 -21.03 93.31 30 -1 -21.00 93.00 990 -21.03 93.31 TC 30 -21.09 93.24 1 28 -20.82 92.91 TC 45 990 14 120
1966 SI WA 03:00:00 TS -21.35 93.06 2080 2075 P_____P__PP_P_ SH321966 -21.32 93.58 32 -1 -21.32 93.43 990 -21.32 93.58 TC 32 -21.36 93.53 1 32 -21.07 93.17 TC 45 990 17 116
1966 SI WA 04:00:00 TS -21.47 93.38 991 bom 2070 2002 P_____O__PO_P_ SH321966 -21.48 93.73 33 -1 -21.50 93.70 991 -21.48 93.73 TC 33 -21.50 93.70 2 35 -21.21 93.33 TC 45 990 19 116
1966 SI WA 06:00:00 TS -21.76 93.96 2002 1970 O_____P__OP_O_ jtwc_sh SH321966 -21.80 94.10 35 0 -21.83 94.24 991 -21.80 94.10 TC 35 -21.80 94.11 2 33 -21.50 93.70 TC 45 991 19 117
1966 SI WA 07:00:00 TS -21.92 94.31 992 bom 1970 1913 P_____O__PP_P_ SH321966 -21.96 94.33 34 0 -22.00 94.50 992 -21.96 94.33 TC 34 -21.96 94.35 2 32 -21.66 93.92 TC 44 991 19 122
1966 SI WA 09:00:00 TS -22.25 94.81 1913 1888 P_____P__PP_P_ SH321966 -22.29 94.85 32 -1 -22.33 94.97 992 -22.29 94.85 TC 32 -22.29 94.85 2 30 -21.99 94.40 TC 42 992 17 125
1966 SI WA 10:00:00 TS -22.41 95.07 993 bom 1878 1820 P_____O__PP_P_ SH321966 -22.46 95.14 31 -1 -22.50 95.20 993 -22.46 95.14 TC 31 -22.46 95.11 2 30 -22.16 94.67 TC 41 992 18 125
1966 SI WA 12:00:00 TS -22.75 95.60 1820 1731 O_____P__OP_O_ jtwc_sh SH321966 -22.80 95.70 30 -1 -22.83 95.68 993 -22.80 95.70 TC 30 -22.80 95.65 2 28 -22.50 95.20 TC 40 993 18 125
1966 SI WA 15:00:00 TS -23.26 96.37 1731 1709 P_____P__PP_P_ SH321966 -23.30 96.48 27 -1 -23.33 96.44 993 -23.30 96.48 TC 27 -23.33 96.45 2 25 -23.00 95.95 TC 40 993 17 126
1966 SI WA 16:00:00 TS -23.43 96.62 994 bom 1709 1651 P_____O__PO_P_ SH321966 -23.47 96.73 26 -1 -23.50 96.70 994 -23.47 96.73 TC 26 -23.50 96.70 1 25 -23.17 96.20 TC 40 993 17 126
1966 SI WA 18:00:00 TS -23.76 97.12 1651 1628 O_____P__OP_O_ jtwc_sh SH321966 -23.80 97.20 25 -1 -23.83 97.24 994 -23.80 97.20 TC 25 -23.83 97.18 1 22 -23.50 96.70 TC 40 994 17 126
1966 SI WA 19:00:00 TS -23.93 97.37 995 bom 1618 1570 P_____O__PP_P_ SH321966 -23.97 97.42 23 -1 -24.00 97.50 995 -23.97 97.42 TC 23 -24.00 97.42 1 21 -23.67 96.96 TC 39 994 16 127
1966 SI WA 21:00:00 TS -24.26 97.83 1570 1548 P_____P__PP_P_ SH321966 -24.30 97.83 20 -1 -24.33 97.96 995 -24.30 97.83 TC 20 -24.33 97.88 1 18 -24.00 97.48 TC 37 995 16 128
1966 SI WA 22:00:00 TS -24.43 98.06 996 bom 1538 1491 P_____O__PP_P_ SH321966 -24.47 98.02 18 -1 -24.50 98.20 996 -24.47 98.02 TC 18 -24.50 98.10 1 17 -24.17 97.73 TC 36 995 16 130
1966 SI WA 1966-03-27 00:00:00 TS -24.76 98.49 1491 1469 O_____P__OP_O_ jtwc_sh SH321966 -24.80 98.40 15 -1 -24.83 98.76 996 -24.80 98.40 TC 15 -24.83 98.51 1 14 -24.50 98.20 TC 35 996 15 131
1966 SI WA 01:00:00 TS -24.93 98.70 997 bom 1469 1433 P_____O__PP_P_ SH321966 -24.97 98.60 14 -1 -25.00 99.00 997 -24.97 98.60 TC 14 -25.00 98.70 1 13 -24.67 98.42 TC 35 996 14 135
1966 SI WA 03:00:00 TS -25.26 99.05 1433 1412 P_____P__PP_P_ SH321966 -25.30 99.00 12 -1 -25.33 99.29 998 -25.30 99.00 TC 12 -25.33 99.05 1 11 -25.00 98.83 TC 35 996 13 138
1966 SI WA 04:00:00 TS -25.43 99.19 1412 1387 P_____P__PO_P_ SH321966 -25.47 99.18 11 -1 -25.50 99.36 999 -25.47 99.18 TC 11 -25.50 99.20 1 10 -25.17 99.01 TC 35 996 12 145
1966 SI WA 06:00:00 TS -25.76 99.44 1387 1376 O_____P__OP_O_ jtwc_sh SH321966 -25.80 99.50 10 -1 -25.83 99.46 1000 -25.80 99.50 TC 10 -25.83 99.46 1 12 -25.50 99.30 TC 35 997 12 148
1966 SI WA 07:00:00 TS -25.93 99.54 1001 bom 1376 1353 P_____O__PP_P_ SH321966 -25.97 99.63 10 -1 -26.00 99.50 1001 -25.97 99.63 TC 10 -26.00 99.57 1 13 -25.67 99.40 TC 33 997 11 154
1966 SI WA 09:00:00 TS -26.26 99.71 1353 1343 P_____P__PP_P_ SH321966 -26.30 99.85 12 -1 -26.33 99.63 1001 -26.30 99.85 TC 12 -26.33 99.76 1 16 -26.00 99.55 TC 30 999 11 157
1966 SI WA 10:00:00 TS -26.42 99.77 1002 bom 1343 1332 P_____O__PP_P_ SH321966 -26.47 99.94 13 -1 -26.50 99.70 1002 -26.47 99.94 TC 13 -26.50 99.84 1 17 -26.17 99.60 TC 28 1000 10 162
1966 SI WA 12:00:00 TS -26.74 99.89 1332 1312 O_____P__OP_O_ jtwc_sh SH321966 -26.80 100.10 15 -1 -26.83 99.85 1002 -26.80 100.10 TC 15 -26.83 99.98 1 20 -26.50 99.70 TC 25 1002 10 161
1966 SI WA 15:00:00 TS -27.23 100.08 1312 1313 ______P___P_P_ SH321966 -1 -27.33 100.11 1003 TC -27.33 100.15 1 23 -27.00 99.94 TC 22 1003 10 159
1966 SI WA 16:00:00 TS -27.39 100.16 1004 bom 1303 1294 ______O___O_P_ SH321966 -1 -27.50 100.20 1004 TC -27.50 100.20 1 25 -27.17 100.03 TC 21 1003 11 155
1966 SI WA 18:00:00 TS -27.71 100.34 1295 1285 ______P_____O_ -1 -27.83 100.41 1004 1 -27.50 100.20 TC 20 1004 11 155
1966 SI WA 19:00:00 TS -27.88 100.42 1005 bom 1287 1271 ______O_____P_ -1 -28.00 100.50 1005 1 -27.67 100.28 TC 19 1004 11 157
1966 SI WA 21:00:00 TS -28.22 100.58 1271 1272 ______P_____P_ -1 -28.33 100.63 1005 1 -28.00 100.45 TC 17 1005 11 158
1966 SI WA 22:00:00 TS -28.40 100.66 1006 bom 1264 1257 ______O_____P_ -1 -28.50 100.70 1006 1 -28.17 100.53 TC 16 1005 11 156
1966 SI WA 1966-03-28 00:00:00 TS -28.74 100.84 1259 1246 ______P_____O_ -1 -28.83 100.89 1006 1 -28.50 100.70 TC 15 1006 14 154
1966 SI WA 01:00:00 NR -29.00 101.00 1007 bom 1246 ______O_______ -1 -29.00 101.00 1007 1 TC 18 152